Wetterdaten: Woche 14.01.13 - 20.01.13 (KW3)
Datum Zeit Temp. A. Feuchte A. Luftdruck Regen Wind Richtung Taupunkt Windchill Windben
14.01.2013 00:00 -3,1 C 86 % 1017,8 hPa 0,0 l/m 2,3 km/h N -5,2 C -3,1 C 10,9 km/h
14.01.2013 01:00 -3,3 C 86 % 1017,7 hPa 0,0 l/m 0,8 km/h N -5,3 C -3,3 C 7,2 km/h
14.01.2013 02:00 -3,4 C 85 % 1017,7 hPa 0,0 l/m 0,6 km/h N -5,5 C -3,4 C 5,6 km/h
14.01.2013 03:00 -3,4 C 85 % 1017,3 hPa 0,0 l/m 0,2 km/h N -5,5 C -3,4 C 2,8 km/h
14.01.2013 04:00 -3,4 C 87 % 1016,7 hPa 0,0 l/m 0,1 km/h N -5,3 C -3,4 C 0,8 km/h
14.01.2013 05:00 -3,4 C 85 % 1016,3 hPa 0,0 l/m 0,0 km/h N -5,5 C -3,4 C 1,2 km/h
14.01.2013 06:00 -3,3 C 85 % 1015,6 hPa 0,0 l/m 0,1 km/h N -5,5 C -3,3 C 1,6 km/h
14.01.2013 07:00 -3,1 C 84 % 1015,3 hPa 0,0 l/m 0,2 km/h N -5,4 C -3,1 C 3,6 km/h
14.01.2013 08:00 -2,9 C 84 % 1014,9 hPa 0,0 l/m 0,0 km/h N -5,3 C -2,9 C 0,0 km/h
14.01.2013 09:00 -2,6 C 84 % 1014,5 hPa 0,0 l/m 0,0 km/h N -4,9 C -2,6 C 0,0 km/h
14.01.2013 10:00 -2,0 C 84 % 1014,0 hPa 0,0 l/m 0,6 km/h N -4,3 C -2,0 C 4,4 km/h
14.01.2013 11:00 -1,3 C 85 % 1013,1 hPa 0,0 l/m 0,9 km/h N -3,6 C -1,3 C 6,4 km/h
14.01.2013 12:00 -1,4 C 88 % 1013,4 hPa 0,0 l/m 0,8 km/h N -3,2 C -1,4 C 5,6 km/h
14.01.2013 13:00 -1,3 C 86 % 1012,9 hPa 0,0 l/m 1,0 km/h N -3,3 C -1,3 C 5,6 km/h
14.01.2013 14:00 -1,1 C 86 % 1013,0 hPa 0,0 l/m 0,6 km/h N -3,3 C -1,1 C 4,8 km/h
14.01.2013 15:00 -1,4 C 85 % 1013,3 hPa 0,0 l/m 0,0 km/h N -3,6 C -1,4 C 0,0 km/h
14.01.2013 16:00 -1,9 C 84 % 1013,5 hPa 0,0 l/m 0,0 km/h N -4,3 C -1,9 C 0,0 km/h
14.01.2013 17:00 -2,9 C 85 % 1013,9 hPa 0,0 l/m 0,0 km/h N -5,0 C -2,9 C 0,0 km/h
14.01.2013 18:00 -3,4 C 86 % 1014,1 hPa 0,0 l/m 0,1 km/h N -5,4 C -3,4 C 0,8 km/h
14.01.2013 19:00 -2,6 C 86 % 1013,9 hPa 0,0 l/m 0,2 km/h N -4,6 C -2,6 C 2,0 km/h
14.01.2013 20:00 -2,3 C 86 % 1013,7 hPa 0,0 l/m 0,7 km/h N -4,3 C -2,3 C 4,4 km/h
14.01.2013 21:00 -2,4 C 85 % 1013,6 hPa 0,0 l/m 0,2 km/h N -4,6 C -2,4 C 2,0 km/h
14.01.2013 22:00 -2,7 C 85 % 1014,1 hPa 0,0 l/m 0,0 km/h N -4,9 C -2,7 C 0,0 km/h
14.01.2013 23:00 -2,6 C 86 % 1014,2 hPa 0,0 l/m 0,0 km/h N -4,6 C -2,6 C 0,0 km/h
15.01.2013 00:00 -2,6 C 86 % 1014,2 hPa 0,0 l/m 0,0 km/h N -4,6 C -2,6 C 0,0 km/h
15.01.2013 01:00 -2,8 C 86 % 1014,0 hPa 0,0 l/m 0,0 km/h N -4,8 C -2,8 C 0,0 km/h
15.01.2013 02:00 -2,7 C 86 % 1014,0 hPa 0,0 l/m 0,0 km/h N -4,7 C -2,7 C 0,0 km/h
15.01.2013 03:00 -2,4 C 86 % 1013,4 hPa 0,0 l/m 0,5 km/h N -4,4 C -2,4 C 3,6 km/h
15.01.2013 04:00 -2,2 C 86 % 1013,0 hPa 0,0 l/m 0,0 km/h N -4,2 C -2,2 C 0,0 km/h
15.01.2013 05:00 -2,3 C 86 % 1012,8 hPa 0,0 l/m 0,1 km/h N -4,3 C -2,3 C 2,4 km/h
15.01.2013 06:00 -2,1 C 86 % 1012,5 hPa 0,0 l/m 0,1 km/h N -4,1 C -2,1 C 2,0 km/h
15.01.2013 07:00 -2,1 C 86 % 1012,4 hPa 0,0 l/m 0,6 km/h N -4,1 C -2,1 C 4,0 km/h
15.01.2013 08:00 -2,0 C 86 % 1012,5 hPa 0,0 l/m 1,6 km/h N -4,0 C -2,0 C 6,4 km/h
15.01.2013 09:00 -1,9 C 87 % 1012,0 hPa 0,0 l/m 1,2 km/h N -3,7 C -1,9 C 6,4 km/h
15.01.2013 10:00 -1,8 C 85 % 1011,2 hPa 0,0 l/m 0,7 km/h N -3,9 C -1,8 C 4,4 km/h
15.01.2013 11:00 -1,3 C 84 % 1010,1 hPa 0,0 l/m 0,2 km/h N -3,6 C -1,3 C 2,8 km/h
15.01.2013 12:00 -0,1 C 82 % 1008,8 hPa 0,0 l/m 1,0 km/h N -2,8 C -0,1 C 6,8 km/h
15.01.2013 13:00 1,2 C 79 % 1007,8 hPa 0,0 l/m 5,2 km/h N -2,0 C 0,5 C 14,9 km/h
15.01.2013 14:00 1,3 C 77 % 1007,3 hPa 0,0 l/m 3,0 km/h N -2,2 C 1,3 C 12,1 km/h
15.01.2013 15:00 0,3 C 81 % 1007,6 hPa 0,0 l/m 1,1 km/h N -2,7 C 0,3 C 7,6 km/h
15.01.2013 16:00 -0,3 C 83 % 1007,6 hPa 0,0 l/m 0,5 km/h N -2,9 C -0,3 C 4,4 km/h
15.01.2013 17:00 -1,5 C 84 % 1007,5 hPa 0,0 l/m 0,8 km/h N -3,9 C -1,5 C 4,8 km/h
15.01.2013 18:00 -1,5 C 86 % 1007,1 hPa 0,0 l/m 3,5 km/h N -3,5 C -2,3 C 10,4 km/h
15.01.2013 19:00 -2,8 C 86 % 1007,3 hPa 0,0 l/m 0,0 km/h N -4,8 C -2,8 C 0,8 km/h
15.01.2013 20:00 -3,9 C 86 % 1007,0 hPa 0,0 l/m 0,1 km/h N -5,9 C -3,9 C 0,8 km/h
15.01.2013 21:00 -3,8 C 85 % 1006,9 hPa 0,0 l/m 0,3 km/h N -6,0 C -3,8 C 4,0 km/h
15.01.2013 22:00 -1,8 C 83 % 1006,8 hPa 0,0 l/m 2,1 km/h N -4,3 C -1,8 C 7,6 km/h
15.01.2013 23:00 -1,1 C 84 % 1007,2 hPa 0,0 l/m 5,3 km/h N -3,5 C -1,3 C 14,5 km/h
16.01.2013 00:00 -1,0 C 85 % 1006,9 hPa 0,0 l/m 5,0 km/h N -3,2 C -1,0 C 13,7 km/h
16.01.2013 01:00 -0,9 C 86 % 1006,8 hPa 0,0 l/m 7,4 km/h N -3,0 C -2,3 C 16,5 km/h
16.01.2013 02:00 -1,1 C 84 % 1007,1 hPa 0,0 l/m 8,8 km/h N -3,4 C -3,5 C 20,5 km/h
16.01.2013 03:00 -1,1 C 84 % 1006,5 hPa 0,0 l/m 10,3 km/h N -3,5 C -4,9 C 22,5 km/h
16.01.2013 04:00 -1,0 C 83 % 1006,1 hPa 0,0 l/m 9,9 km/h N -3,5 C -4,5 C 27,8 km/h
16.01.2013 05:00 -1,2 C 83 % 1006,2 hPa 0,0 l/m 6,8 km/h N -3,8 C -1,8 C 16,1 km/h
16.01.2013 06:00 -1,5 C 82 % 1006,3 hPa 0,0 l/m 5,4 km/h N -4,2 C -1,5 C 14,5 km/h
16.01.2013 07:00 -1,5 C 81 % 1006,8 hPa 0,0 l/m 5,4 km/h N -4,3 C -1,6 C 13,3 km/h
16.01.2013 08:00 -1,2 C 80 % 1006,9 hPa 0,0 l/m 6,9 km/h N -4,2 C -2,0 C 18,1 km/h
16.01.2013 09:00 -0,8 C 78 % 1007,0 hPa 0,0 l/m 5,9 km/h N -4,1 C -1,1 C 14,5 km/h
16.01.2013 10:00 -0,1 C 76 % 1006,7 hPa 0,3 l/m 9,0 km/h N -3,9 C -2,6 C 21,3 km/h
16.01.2013 11:00 0,5 C 73 % 1005,9 hPa 0,3 l/m 10,8 km/h N -3,8 C -3,5 C 23,7 km/h
16.01.2013 12:00 1,2 C 70 % 1005,1 hPa 0,8 l/m 9,1 km/h N -3,7 C -1,3 C 20,5 km/h
16.01.2013 13:00 0,8 C 70 % 1004,6 hPa 0,3 l/m 11,0 km/h N -4,0 C -3,2 C 21,7 km/h
16.01.2013 14:00 0,4 C 71 % 1004,2 hPa 0,0 l/m 10,5 km/h N -4,3 C -3,5 C 22,1 km/h
16.01.2013 15:00 -0,0 C 74 % 1004,1 hPa 0,3 l/m 8,6 km/h N -4,2 C -2,2 C 21,3 km/h
16.01.2013 16:00 -0,3 C 76 % 1004,0 hPa 0,0 l/m 8,2 km/h N -4,0 C -2,1 C 20,9 km/h
16.01.2013 17:00 -0,4 C 78 % 1004,0 hPa 0,0 l/m 11,6 km/h N -3,7 C -5,2 C 25,3 km/h
16.01.2013 18:00 -0,6 C 81 % 1004,1 hPa 0,0 l/m 9,3 km/h N -3,4 C -3,6 C 20,9 km/h
16.01.2013 19:00 -0,7 C 83 % 1004,2 hPa 0,0 l/m 9,5 km/h N -3,2 C -3,8 C 23,3 km/h
16.01.2013 20:00 -0,8 C 85 % 1004,0 hPa 0,0 l/m 8,4 km/h N -3,1 C -2,8 C 18,9 km/h
16.01.2013 21:00 -0,7 C 85 % 1003,6 hPa 0,0 l/m 7,7 km/h N -3,0 C -2,1 C 17,7 km/h
16.01.2013 22:00 -0,7 C 85 % 1003,3 hPa 0,0 l/m 9,2 km/h N -2,9 C -3,5 C 20,1 km/h
16.01.2013 23:00 -0,8 C 86 % 1003,2 hPa 0,0 l/m 10,0 km/h N -2,9 C -4,3 C 21,7 km/h
17.01.2013 00:00 -1,1 C 85 % 1003,2 hPa 0,0 l/m 8,4 km/h N -3,3 C -3,1 C 18,5 km/h
17.01.2013 01:00 -1,3 C 84 % 1003,2 hPa 0,0 l/m 12,0 km/h N -3,6 C -6,4 C 23,7 km/h
17.01.2013 02:00 -1,3 C 84 % 1003,5 hPa 0,0 l/m 9,7 km/h N -3,6 C -4,5 C 23,3 km/h
17.01.2013 03:00 -1,5 C 83 % 1003,6 hPa 0,0 l/m 9,9 km/h N -3,9 C -5,0 C 21,7 km/h
17.01.2013 04:00 -1,7 C 82 % 1003,7 hPa 0,0 l/m 7,1 km/h N -4,3 C -2,5 C 17,3 km/h
17.01.2013 05:00 -1,8 C 82 % 1004,0 hPa 0,0 l/m 7,2 km/h N -4,4 C -2,6 C 16,1 km/h
17.01.2013 06:00 -1,9 C 82 % 1004,1 hPa 0,0 l/m 9,3 km/h N -4,6 C -4,8 C 18,5 km/h
17.01.2013 07:00 -1,9 C 81 % 1004,3 hPa 0,0 l/m 10,0 km/h N -4,7 C -5,5 C 22,9 km/h
17.01.2013 08:00 -1,8 C 81 % 1005,2 hPa 0,0 l/m 6,6 km/h N -4,6 C -2,4 C 14,5 km/h
17.01.2013 09:00 -1,7 C 81 % 1005,9 hPa 0,0 l/m 8,1 km/h N -4,5 C -3,5 C 18,9 km/h
17.01.2013 10:00 -1,6 C 81 % 1006,4 hPa 0,0 l/m 7,6 km/h N -4,5 C -2,9 C 18,1 km/h
17.01.2013 11:00 -1,6 C 81 % 1006,5 hPa 0,0 l/m 8,0 km/h N -4,4 C -3,3 C 18,9 km/h
17.01.2013 12:00 -1,6 C 81 % 1006,5 hPa 0,0 l/m 7,6 km/h N -4,4 C -2,8 C 18,9 km/h
17.01.2013 13:00 -1,6 C 81 % 1006,2 hPa 0,0 l/m 9,4 km/h N -4,4 C -4,6 C 20,9 km/h
17.01.2013 14:00 -1,6 C 81 % 1006,4 hPa 0,0 l/m 9,5 km/h N -4,4 C -4,6 C 20,5 km/h
17.01.2013 15:00 -1,3 C 81 % 1007,1 hPa 0,0 l/m 7,8 km/h N -4,2 C -2,9 C 17,7 km/h
17.01.2013 16:00 -1,5 C 81 % 1007,6 hPa 0,0 l/m 9,0 km/h N -4,3 C -4,2 C 20,9 km/h
17.01.2013 17:00 -1,6 C 81 % 1007,9 hPa 0,0 l/m 8,2 km/h N -4,4 C -3,5 C 19,3 km/h
17.01.2013 18:00 -1,7 C 82 % 1008,4 hPa 0,0 l/m 8,3 km/h N -4,4 C -3,7 C 19,3 km/h
17.01.2013 19:00 -1,9 C 83 % 1009,1 hPa 0,0 l/m 8,5 km/h N -4,5 C -4,2 C 21,3 km/h
17.01.2013 20:00 -2,1 C 84 % 1009,7 hPa 0,0 l/m 7,8 km/h N -4,4 C -3,7 C 18,5 km/h
17.01.2013 21:00 -2,4 C 86 % 1009,9 hPa 0,0 l/m 9,0 km/h N -4,5 C -5,2 C 20,5 km/h
17.01.2013 22:00 -2,3 C 88 % 1009,9 hPa 0,0 l/m 8,4 km/h N -4,0 C -4,4 C 20,1 km/h
17.01.2013 23:00 -2,3 C 88 % 1009,7 hPa 0,0 l/m 8,3 km/h N -4,0 C -4,3 C 20,5 km/h
18.01.2013 00:00 -2,3 C 86 % 1009,4 hPa 0,0 l/m 8,1 km/h N -4,3 C -4,1 C 18,9 km/h
18.01.2013 01:00 -2,3 C 86 % 1009,5 hPa 0,0 l/m 6,1 km/h N -4,3 C -3,1 C 14,5 km/h
18.01.2013 02:00 -2,5 C 86 % 1009,4 hPa 0,0 l/m 9,5 km/h N -4,5 C -5,7 C 20,1 km/h
18.01.2013 03:00 -2,7 C 86 % 1009,4 hPa 0,0 l/m 10,2 km/h N -4,7 C -6,6 C 23,7 km/h
18.01.2013 04:00 -2,7 C 86 % 1009,1 hPa 0,0 l/m 8,9 km/h N -4,7 C -5,4 C 19,3 km/h
18.01.2013 05:00 -2,8 C 85 % 1008,8 hPa 0,0 l/m 10,3 km/h N -5,0 C -6,7 C 22,5 km/h
18.01.2013 06:00 -2,8 C 84 % 1008,5 hPa 0,0 l/m 12,1 km/h N -5,1 C -8,3 C 25,3 km/h
18.01.2013 07:00 -2,8 C 84 % 1008,2 hPa 0,0 l/m 11,2 km/h N -5,1 C -7,6 C 25,7 km/h
18.01.2013 08:00 -2,9 C 83 % 1008,3 hPa 0,0 l/m 12,1 km/h N -5,3 C -8,3 C 27,0 km/h
18.01.2013 09:00 -2,9 C 83 % 1008,3 hPa 0,0 l/m 13,0 km/h N -5,4 C -9,1 C 26,5 km/h
18.01.2013 10:00 -3,0 C 83 % 1008,3 hPa 0,0 l/m 13,0 km/h N -5,4 C -9,2 C 26,1 km/h
18.01.2013 11:00 -3,1 C 85 % 1007,6 hPa 0,0 l/m 11,6 km/h N -5,2 C -8,2 C 26,2 km/h
18.01.2013 12:00 -2,9 C 86 % 1006,8 hPa 0,0 l/m 12,1 km/h N -4,9 C -8,3 C 25,8 km/h
18.01.2013 13:00 -3,0 C 89 % 1006,2 hPa 0,0 l/m 12,9 km/h N -4,6 C -9,1 C 27,0 km/h
18.01.2013 14:00 -2,9 C 86 % 1006,0 hPa 0,0 l/m 10,7 km/h N -4,9 C -7,1 C 23,7 km/h
18.01.2013 15:00 -2,9 C 86 % 1005,9 hPa 0,0 l/m 10,9 km/h N -4,9 C -7,4 C 24,5 km/h
18.01.2013 16:00 -3,3 C 86 % 1005,9 hPa 0,0 l/m 9,8 km/h N -5,3 C -6,8 C 23,7 km/h
18.01.2013 17:00 -3,4 C 86 % 1005,8 hPa 0,0 l/m 9,9 km/h N -5,4 C -7,1 C 22,1 km/h
18.01.2013 18:00 -3,4 C 86 % 1005,8 hPa 0,0 l/m 9,4 km/h N -5,4 C -6,7 C 21,3 km/h
18.01.2013 19:00 -3,6 C 86 % 1005,6 hPa 0,0 l/m 10,0 km/h N -5,6 C -7,4 C 22,1 km/h
18.01.2013 20:00 -3,8 C 86 % 1005,2 hPa 0,0 l/m 10,8 km/h N -5,7 C -8,3 C 22,5 km/h
18.01.2013 21:00 -3,8 C 87 % 1005,0 hPa 0,0 l/m 10,2 km/h N -5,6 C -7,8 C 23,7 km/h
18.01.2013 22:00 -3,8 C 84 % 1004,9 hPa 0,0 l/m 12,3 km/h N -6,2 C -9,6 C 24,5 km/h
18.01.2013 23:00 -4,0 C 82 % 1004,5 hPa 0,0 l/m 9,6 km/h N -6,5 C -7,4 C 22,9 km/h
19.01.2013 00:00 -4,1 C 81 % 1004,0 hPa 0,0 l/m 9,4 km/h N -6,8 C -7,3 C 23,3 km/h
19.01.2013 01:00 -4,2 C 80 % 1003,6 hPa 0,0 l/m 9,4 km/h N -7,1 C -7,5 C 20,9 km/h
19.01.2013 02:00 -4,3 C 80 % 1003,4 hPa 0,0 l/m 7,6 km/h N -7,3 C -5,8 C 19,7 km/h
19.01.2013 03:00 -4,5 C 80 % 1003,0 hPa 0,0 l/m 7,0 km/h N -7,4 C -5,3 C 17,3 km/h
19.01.2013 04:00 -4,5 C 79 % 1002,5 hPa 0,0 l/m 7,5 km/h N -7,5 C -5,8 C 18,1 km/h
19.01.2013 05:00 -4,5 C 79 % 1002,1 hPa 0,0 l/m 6,8 km/h N -7,6 C -4,9 C 16,9 km/h
19.01.2013 06:00 -4,6 C 79 % 1002,1 hPa 0,0 l/m 5,8 km/h N -7,7 C -4,7 C 16,5 km/h
19.01.2013 07:00 -4,7 C 79 % 1002,1 hPa 0,0 l/m 4,2 km/h N -7,7 C -4,7 C 10,5 km/h
19.01.2013 08:00 -4,8 C 79 % 1001,9 hPa 0,0 l/m 3,1 km/h N -7,8 C -4,8 C 8,4 km/h
19.01.2013 09:00 -4,7 C 79 % 1001,8 hPa 0,0 l/m 3,2 km/h N -7,8 C -4,7 C 8,4 km/h
19.01.2013 10:00 -4,3 C 78 % 1001,7 hPa 0,0 l/m 2,5 km/h N -7,6 C -4,3 C 6,8 km/h
19.01.2013 11:00 -4,0 C 78 % 1001,0 hPa 0,0 l/m 2,4 km/h N -7,3 C -4,0 C 7,2 km/h
19.01.2013 12:00 -3,8 C 77 % 1000,7 hPa 0,0 l/m 3,3 km/h N -7,2 C -3,8 C 7,6 km/h
19.01.2013 13:00 -3,7 C 77 % 1000,7 hPa 0,0 l/m 1,8 km/h N -7,1 C -3,7 C 7,2 km/h
19.01.2013 14:00 -4,0 C 79 % 1000,8 hPa 0,0 l/m 1,9 km/h N -7,1 C -4,0 C 7,2 km/h
19.01.2013 15:00 -4,1 C 80 % 1001,1 hPa 0,0 l/m 0,6 km/h N -7,1 C -4,1 C 3,2 km/h
19.01.2013 16:00 -4,4 C 81 % 1001,2 hPa 0,0 l/m 0,9 km/h N -7,2 C -4,4 C 5,6 km/h
19.01.2013 17:00 -4,7 C 82 % 1001,6 hPa 0,0 l/m 0,3 km/h N -7,3 C -4,7 C 4,4 km/h
19.01.2013 18:00 -4,9 C 83 % 1001,7 hPa 0,0 l/m 0,1 km/h N -7,3 C -4,9 C 2,4 km/h
19.01.2013 19:00 -5,0 C 84 % 1001,8 hPa 0,0 l/m 0,1 km/h N -7,2 C -5,0 C 2,8 km/h
19.01.2013 20:00 -4,9 C 85 % 1002,0 hPa 0,0 l/m 0,2 km/h N -7,0 C -4,9 C 3,2 km/h
19.01.2013 21:00 -5,0 C 86 % 1001,7 hPa 0,0 l/m 0,1 km/h N -7,0 C -5,0 C 2,4 km/h
19.01.2013 22:00 -4,9 C 86 % 1001,7 hPa 0,0 l/m 0,0 km/h N -6,9 C -4,9 C 0,4 km/h
19.01.2013 23:00 -4,8 C 86 % 1001,4 hPa 0,0 l/m 0,0 km/h N -6,8 C -4,8 C 0,0 km/h
20.01.2013 00:00 -4,7 C 86 % 1001,1 hPa 0,0 l/m 0,0 km/h N -6,7 C -4,7 C 0,8 km/h
20.01.2013 01:00 -4,5 C 85 % 1000,7 hPa 0,0 l/m 0,0 km/h N -6,6 C -4,5 C 0,0 km/h
20.01.2013 02:00 -4,2 C 87 % 1000,5 hPa 0,0 l/m 0,1 km/h N -6,0 C -4,2 C 1,2 km/h
20.01.2013 03:00 -3,9 C 85 % 1000,5 hPa 0,0 l/m 0,1 km/h N -6,1 C -3,9 C 2,4 km/h
20.01.2013 04:00 -3,9 C 84 % 1000,4 hPa 0,0 l/m 0,1 km/h N -6,1 C -3,9 C 1,2 km/h
20.01.2013 05:00 -3,7 C 84 % 999,9 hPa 0,0 l/m 0,1 km/h N -6,0 C -3,7 C 2,4 km/h
20.01.2013 06:00 -3,6 C 84 % 999,8 hPa 0,0 l/m 0,3 km/h N -5,9 C -3,6 C 4,4 km/h
20.01.2013 07:00 -3,5 C 83 % 999,8 hPa 0,0 l/m 0,4 km/h N -6,0 C -3,5 C 4,4 km/h
20.01.2013 08:00 -3,4 C 83 % 999,6 hPa 0,0 l/m 0,1 km/h N -5,8 C -3,4 C 2,4 km/h
20.01.2013 09:00 -3,2 C 83 % 999,4 hPa 0,0 l/m 0,8 km/h N -5,6 C -3,2 C 4,4 km/h
20.01.2013 10:00 -2,7 C 82 % 999,2 hPa 0,0 l/m 0,4 km/h N -5,3 C -2,7 C 3,2 km/h
20.01.2013 11:00 -2,4 C 83 % 998,5 hPa 0,0 l/m 0,0 km/h N -5,0 C -2,4 C 0,0 km/h
20.01.2013 12:00 -2,1 C 82 % 998,2 hPa 0,0 l/m 0,2 km/h N -4,8 C -2,1 C 1,6 km/h
20.01.2013 13:00 -1,7 C 82 % 997,8 hPa 0,0 l/m 0,5 km/h N -4,4 C -1,7 C 4,4 km/h
20.01.2013 14:00 -1,4 C 82 % 997,8 hPa 0,0 l/m 0,3 km/h N -4,1 C -1,4 C 3,2 km/h
20.01.2013 15:00 -1,2 C 82 % 997,5 hPa 0,0 l/m 0,0 km/h N -3,9 C -1,2 C 0,8 km/h
20.01.2013 16:00 -1,1 C 81 % 997,4 hPa 0,0 l/m 0,0 km/h N -4,0 C -1,1 C 0,8 km/h
20.01.2013 17:00 -0,9 C 81 % 997,2 hPa 0,0 l/m 0,2 km/h N -3,8 C -0,9 C 2,0 km/h
20.01.2013 18:00 -0,7 C 81 % 997,0 hPa 0,0 l/m 0,0 km/h N -3,6 C -0,7 C 0,0 km/h
20.01.2013 19:00 -0,6 C 81 % 996,8 hPa 0,0 l/m 0,0 km/h N -3,4 C -0,6 C 0,0 km/h
20.01.2013 20:00 -0,4 C 81 % 996,4 hPa 0,0 l/m 0,0 km/h N -3,3 C -0,4 C 0,4 km/h
20.01.2013 21:00 -0,6 C 81 % 996,3 hPa 0,0 l/m 0,0 km/h N -3,4 C -0,6 C 0,8 km/h
20.01.2013 22:00 -0,6 C 80 % 996,2 hPa 0,0 l/m 0,6 km/h N -3,6 C -0,6 C 2,8 km/h
20.01.2013 23:00 -0,3 C 80 % 996,0 hPa 0,0 l/m 0,0 km/h N -3,3 C -0,3 C 0,8 km/h
Min-Datum _ 19.01.13 16.01.13 20.01.13 - 14.01.13 - 19.01.13 18.01.13 14.01.13
_ Min-Zeit 21:15 12:00 23:45 - 03:30 - 08:00 13:15 03:30
Minimum _ -5,1 C 69 % 995,5 hPa - 0,0 km/h - -7,9 C -10,9 C 0,0 km/h
Max-Datum _ 15.01.13 14.01.13 14.01.13 16.01.13 18.01.13 - 15.01.13 15.01.13 16.01.13
_ Max-Zeit 14:00 04:30 00:00 12:00 13:15 - 13:45 13:45 04:30
Maximum _ 2,0 C 92 % 1017,8 hPa 0,8 l/m 15,2 km/h
N
- -1,7 C 1,9 C 32,2 km/h
N
Durchschnitt _ -2,3 C 83 % 1006,3 hPa #1,8 l/m 4,7 km/h N -4,8 C -3,7 C 11,7 km/h